sensor_id;sensor_type;location;lat;lon;timestamp;P1;durP1;ratioP1;P2;durP2;ratioP2
10987;SDS011;5547;42.672;23.230;2023-05-07T00:02:17;10.47;;;8.73;;
10987;SDS011;5547;42.672;23.230;2023-05-07T00:05:18;10.93;;;9.43;;
10987;SDS011;5547;42.672;23.230;2023-05-07T00:08:18;11.87;;;9.30;;
10987;SDS011;5547;42.672;23.230;2023-05-07T00:11:20;10.97;;;8.63;;
10987;SDS011;5547;42.672;23.230;2023-05-07T00:14:20;11.48;;;8.63;;
10987;SDS011;5547;42.672;23.230;2023-05-07T00:17:21;11.27;;;9.13;;
10987;SDS011;5547;42.672;23.230;2023-05-07T00:20:21;9.77;;;8.70;;
10987;SDS011;5547;42.672;23.230;2023-05-07T00:23:22;11.37;;;9.67;;
10987;SDS011;5547;42.672;23.230;2023-05-07T00:26:23;11.80;;;9.23;;
10987;SDS011;5547;42.672;23.230;2023-05-07T00:29:23;11.83;;;9.70;;
10987;SDS011;5547;42.672;23.230;2023-05-07T00:32:24;12.30;;;9.57;;
10987;SDS011;5547;42.672;23.230;2023-05-07T00:35:24;13.50;;;10.67;;
10987;SDS011;5547;42.672;23.230;2023-05-07T00:38:24;13.48;;;10.30;;
10987;SDS011;5547;42.672;23.230;2023-05-07T00:41:25;14.20;;;11.33;;
10987;SDS011;5547;42.672;23.230;2023-05-07T00:44:25;12.93;;;11.53;;
10987;SDS011;5547;42.672;23.230;2023-05-07T00:47:26;16.33;;;12.57;;
10987;SDS011;5547;42.672;23.230;2023-05-07T00:50:27;15.27;;;11.93;;
10987;SDS011;5547;42.672;23.230;2023-05-07T00:53:28;16.27;;;12.50;;
10987;SDS011;5547;42.672;23.230;2023-05-07T00:56:28;17.13;;;13.03;;
10987;SDS011;5547;42.672;23.230;2023-05-07T00:59:30;13.82;;;12.10;;
10987;SDS011;5547;42.672;23.230;2023-05-07T01:02:31;14.48;;;12.43;;
10987;SDS011;5547;42.672;23.230;2023-05-07T01:05:32;17.53;;;14.20;;
10987;SDS011;5547;42.672;23.230;2023-05-07T01:08:32;17.33;;;13.00;;
10987;SDS011;5547;42.672;23.230;2023-05-07T01:11:35;14.97;;;12.83;;
10987;SDS011;5547;42.672;23.230;2023-05-07T01:14:35;15.05;;;12.65;;
10987;SDS011;5547;42.672;23.230;2023-05-07T01:17:36;17.53;;;14.07;;
10987;SDS011;5547;42.672;23.230;2023-05-07T01:20:38;18.63;;;13.27;;
10987;SDS011;5547;42.672;23.230;2023-05-07T01:23:38;21.53;;;14.80;;
10987;SDS011;5547;42.672;23.230;2023-05-07T01:26:39;19.98;;;15.60;;
10987;SDS011;5547;42.672;23.230;2023-05-07T01:29:40;21.27;;;16.25;;
10987;SDS011;5547;42.672;23.230;2023-05-07T01:36:06;21.65;;;16.38;;
10987;SDS011;5547;42.672;23.230;2023-05-07T01:39:08;19.35;;;15.73;;
10987;SDS011;5547;42.672;23.230;2023-05-07T01:42:10;20.52;;;16.10;;
10987;SDS011;5547;42.672;23.230;2023-05-07T01:45:11;20.98;;;15.98;;
10987;SDS011;5547;42.672;23.230;2023-05-07T01:48:12;20.93;;;16.10;;
10987;SDS011;5547;42.672;23.230;2023-05-07T01:51:14;21.25;;;18.40;;
10987;SDS011;5547;42.672;23.230;2023-05-07T01:54:14;23.63;;;17.23;;
10987;SDS011;5547;42.672;23.230;2023-05-07T01:57:15;22.40;;;16.50;;
10987;SDS011;5547;42.672;23.230;2023-05-07T02:00:15;23.33;;;17.05;;
10987;SDS011;5547;42.672;23.230;2023-05-07T02:03:17;22.35;;;16.98;;
10987;SDS011;5547;42.672;23.230;2023-05-07T02:06:17;24.43;;;17.60;;
10987;SDS011;5547;42.672;23.230;2023-05-07T02:09:19;22.73;;;16.80;;
10987;SDS011;5547;42.672;23.230;2023-05-07T02:12:19;20.52;;;16.08;;
10987;SDS011;5547;42.672;23.230;2023-05-07T02:15:20;23.03;;;16.70;;
10987;SDS011;5547;42.672;23.230;2023-05-07T02:18:20;21.20;;;16.37;;
10987;SDS011;5547;42.672;23.230;2023-05-07T02:21:20;20.23;;;16.30;;
10987;SDS011;5547;42.672;23.230;2023-05-07T02:24:21;23.20;;;17.13;;
10987;SDS011;5547;42.672;23.230;2023-05-07T02:27:21;20.98;;;16.52;;
10987;SDS011;5547;42.672;23.230;2023-05-07T02:30:22;22.70;;;17.10;;
10987;SDS011;5547;42.672;23.230;2023-05-07T02:33:22;20.67;;;15.77;;
10987;SDS011;5547;42.672;23.230;2023-05-07T02:36:22;18.53;;;15.97;;
10987;SDS011;5547;42.672;23.230;2023-05-07T02:39:23;21.87;;;17.13;;
10987;SDS011;5547;42.672;23.230;2023-05-07T02:42:23;21.15;;;17.52;;
10987;SDS011;5547;42.672;23.230;2023-05-07T02:45:24;21.77;;;17.63;;
10987;SDS011;5547;42.672;23.230;2023-05-07T02:48:24;23.03;;;16.87;;
10987;SDS011;5547;42.672;23.230;2023-05-07T02:51:25;25.30;;;20.00;;
10987;SDS011;5547;42.672;23.230;2023-05-07T02:54:26;24.35;;;19.55;;
10987;SDS011;5547;42.672;23.230;2023-05-07T02:57:26;21.87;;;17.47;;
10987;SDS011;5547;42.672;23.230;2023-05-07T03:00:26;23.80;;;18.10;;
10987;SDS011;5547;42.672;23.230;2023-05-07T03:03:27;24.10;;;18.97;;
10987;SDS011;5547;42.672;23.230;2023-05-07T03:06:27;27.77;;;19.92;;
10987;SDS011;5547;42.672;23.230;2023-05-07T03:09:27;28.47;;;20.23;;
10987;SDS011;5547;42.672;23.230;2023-05-07T03:12:28;24.70;;;19.13;;
10987;SDS011;5547;42.672;23.230;2023-05-07T03:15:28;25.53;;;19.43;;
10987;SDS011;5547;42.672;23.230;2023-05-07T03:18:29;26.85;;;21.10;;
10987;SDS011;5547;42.672;23.230;2023-05-07T03:21:30;26.03;;;19.43;;
10987;SDS011;5547;42.672;23.230;2023-05-07T03:24:30;25.47;;;19.00;;
10987;SDS011;5547;42.672;23.230;2023-05-07T03:27:31;24.70;;;18.67;;
10987;SDS011;5547;42.672;23.230;2023-05-07T03:30:31;29.17;;;21.70;;
10987;SDS011;5547;42.672;23.230;2023-05-07T03:33:32;28.73;;;20.37;;
10987;SDS011;5547;42.672;23.230;2023-05-07T03:36:33;27.95;;;20.10;;
10987;SDS011;5547;42.672;23.230;2023-05-07T03:39:34;24.47;;;18.20;;
10987;SDS011;5547;42.672;23.230;2023-05-07T03:42:35;25.95;;;19.00;;
10987;SDS011;5547;42.672;23.230;2023-05-07T03:45:35;25.03;;;18.43;;
10987;SDS011;5547;42.672;23.230;2023-05-07T03:48:36;26.10;;;19.00;;
10987;SDS011;5547;42.672;23.230;2023-05-07T03:51:36;25.23;;;18.87;;
10987;SDS011;5547;42.672;23.230;2023-05-07T03:54:36;22.60;;;17.87;;
10987;SDS011;5547;42.672;23.230;2023-05-07T03:57:37;21.67;;;16.17;;
10987;SDS011;5547;42.672;23.230;2023-05-07T04:00:37;20.63;;;16.25;;
10987;SDS011;5547;42.672;23.230;2023-05-07T04:03:39;19.20;;;14.90;;
10987;SDS011;5547;42.672;23.230;2023-05-07T04:06:40;17.93;;;14.80;;
10987;SDS011;5547;42.672;23.230;2023-05-07T04:09:41;16.00;;;13.87;;
10987;SDS011;5547;42.672;23.230;2023-05-07T04:12:41;16.83;;;13.67;;
10987;SDS011;5547;42.672;23.230;2023-05-07T04:15:41;17.85;;;13.85;;
10987;SDS011;5547;42.672;23.230;2023-05-07T04:18:42;15.40;;;12.55;;
10987;SDS011;5547;42.672;23.230;2023-05-07T04:21:42;13.30;;;11.90;;
10987;SDS011;5547;42.672;23.230;2023-05-07T04:24:43;15.93;;;12.53;;
10987;SDS011;5547;42.672;23.230;2023-05-07T04:27:43;15.30;;;11.47;;
10987;SDS011;5547;42.672;23.230;2023-05-07T04:30:43;13.07;;;11.33;;
10987;SDS011;5547;42.672;23.230;2023-05-07T04:33:44;13.27;;;10.88;;
10987;SDS011;5547;42.672;23.230;2023-05-07T04:36:45;12.77;;;9.77;;
10987;SDS011;5547;42.672;23.230;2023-05-07T04:39:46;11.95;;;9.40;;
10987;SDS011;5547;42.672;23.230;2023-05-07T04:42:46;11.73;;;9.67;;
10987;SDS011;5547;42.672;23.230;2023-05-07T04:45:46;11.80;;;9.43;;
10987;SDS011;5547;42.672;23.230;2023-05-07T04:48:47;12.33;;;9.20;;
10987;SDS011;5547;42.672;23.230;2023-05-07T04:51:47;12.50;;;9.70;;
10987;SDS011;5547;42.672;23.230;2023-05-07T04:54:48;11.60;;;9.93;;
10987;SDS011;5547;42.672;23.230;2023-05-07T04:57:48;12.17;;;10.20;;
10987;SDS011;5547;42.672;23.230;2023-05-07T05:00:48;12.27;;;10.25;;
10987;SDS011;5547;42.672;23.230;2023-05-07T05:03:49;13.30;;;10.70;;
10987;SDS011;5547;42.672;23.230;2023-05-07T05:06:49;12.90;;;9.70;;
10987;SDS011;5547;42.672;23.230;2023-05-07T05:09:50;11.27;;;9.43;;
10987;SDS011;5547;42.672;23.230;2023-05-07T05:12:50;15.10;;;9.87;;
10987;SDS011;5547;42.672;23.230;2023-05-07T05:15:51;10.95;;;9.30;;
10987;SDS011;5547;42.672;23.230;2023-05-07T05:18:51;11.95;;;9.30;;
10987;SDS011;5547;42.672;23.230;2023-05-07T05:21:52;12.47;;;9.27;;
10987;SDS011;5547;42.672;23.230;2023-05-07T05:24:52;12.37;;;10.60;;
10987;SDS011;5547;42.672;23.230;2023-05-07T05:27:52;11.57;;;9.80;;
10987;SDS011;5547;42.672;23.230;2023-05-07T05:30:53;11.70;;;8.80;;
10987;SDS011;5547;42.672;23.230;2023-05-07T05:33:53;10.38;;;9.23;;
10987;SDS011;5547;42.672;23.230;2023-05-07T05:36:54;12.03;;;9.93;;
10987;SDS011;5547;42.672;23.230;2023-05-07T05:39:55;10.30;;;9.10;;
10987;SDS011;5547;42.672;23.230;2023-05-07T05:42:55;10.10;;;8.82;;
10987;SDS011;5547;42.672;23.230;2023-05-07T05:45:56;12.23;;;9.50;;
10987;SDS011;5547;42.672;23.230;2023-05-07T05:48:57;11.37;;;9.30;;
10987;SDS011;5547;42.672;23.230;2023-05-07T05:51:57;11.13;;;9.47;;
10987;SDS011;5547;42.672;23.230;2023-05-07T05:54:57;10.15;;;8.50;;
10987;SDS011;5547;42.672;23.230;2023-05-07T05:57:59;9.95;;;8.32;;
10987;SDS011;5547;42.672;23.230;2023-05-07T06:01:00;11.23;;;8.97;;
10987;SDS011;5547;42.672;23.230;2023-05-07T06:04:02;10.33;;;9.17;;
10987;SDS011;5547;42.672;23.230;2023-05-07T06:07:03;10.52;;;9.40;;
10987;SDS011;5547;42.672;23.230;2023-05-07T06:10:03;10.80;;;9.50;;
10987;SDS011;5547;42.672;23.230;2023-05-07T06:13:04;10.30;;;9.07;;
10987;SDS011;5547;42.672;23.230;2023-05-07T06:16:05;10.35;;;8.57;;
10987;SDS011;5547;42.672;23.230;2023-05-07T06:19:05;10.20;;;8.80;;
10987;SDS011;5547;42.672;23.230;2023-05-07T06:22:06;9.83;;;8.77;;
10987;SDS011;5547;42.672;23.230;2023-05-07T06:25:07;12.52;;;9.00;;
10987;SDS011;5547;42.672;23.230;2023-05-07T06:28:07;10.60;;;8.43;;
10987;SDS011;5547;42.672;23.230;2023-05-07T06:31:17;11.18;;;8.57;;
10987;SDS011;5547;42.672;23.230;2023-05-07T06:34:22;10.85;;;8.73;;
10987;SDS011;5547;42.672;23.230;2023-05-07T06:37:22;11.40;;;8.53;;
10987;SDS011;5547;42.672;23.230;2023-05-07T06:40:22;9.17;;;8.17;;
10987;SDS011;5547;42.672;23.230;2023-05-07T06:43:24;9.57;;;8.25;;
10987;SDS011;5547;42.672;23.230;2023-05-07T06:46:24;8.30;;;6.93;;
10987;SDS011;5547;42.672;23.230;2023-05-07T06:49:25;9.52;;;7.93;;
10987;SDS011;5547;42.672;23.230;2023-05-07T06:52:25;9.68;;;8.65;;
10987;SDS011;5547;42.672;23.230;2023-05-07T06:55:26;10.77;;;8.60;;
10987;SDS011;5547;42.672;23.230;2023-05-07T06:58:26;9.80;;;8.50;;
10987;SDS011;5547;42.672;23.230;2023-05-07T07:01:27;10.70;;;8.37;;
10987;SDS011;5547;42.672;23.230;2023-05-07T07:04:28;9.70;;;8.40;;
10987;SDS011;5547;42.672;23.230;2023-05-07T07:07:28;10.37;;;8.20;;
10987;SDS011;5547;42.672;23.230;2023-05-07T07:10:29;9.10;;;8.20;;
10987;SDS011;5547;42.672;23.230;2023-05-07T07:13:29;9.47;;;7.93;;
10987;SDS011;5547;42.672;23.230;2023-05-07T07:16:29;10.20;;;8.67;;
10987;SDS011;5547;42.672;23.230;2023-05-07T07:19:30;9.40;;;8.03;;
10987;SDS011;5547;42.672;23.230;2023-05-07T07:22:30;9.07;;;7.67;;
10987;SDS011;5547;42.672;23.230;2023-05-07T07:25:31;8.77;;;7.57;;
10987;SDS011;5547;42.672;23.230;2023-05-07T07:28:31;9.70;;;7.60;;
10987;SDS011;5547;42.672;23.230;2023-05-07T07:31:32;8.15;;;7.20;;
10987;SDS011;5547;42.672;23.230;2023-05-07T07:34:32;9.93;;;7.45;;
10987;SDS011;5547;42.672;23.230;2023-05-07T07:37:32;8.03;;;7.13;;
10987;SDS011;5547;42.672;23.230;2023-05-07T07:40:36;8.60;;;6.60;;
10987;SDS011;5547;42.672;23.230;2023-05-07T07:43:36;8.75;;;6.63;;
10987;SDS011;5547;42.672;23.230;2023-05-07T07:46:37;7.57;;;6.13;;
10987;SDS011;5547;42.672;23.230;2023-05-07T07:49:37;6.60;;;5.53;;
10987;SDS011;5547;42.672;23.230;2023-05-07T07:52:37;7.90;;;6.23;;
10987;SDS011;5547;42.672;23.230;2023-05-07T07:55:41;8.70;;;6.30;;
10987;SDS011;5547;42.672;23.230;2023-05-07T07:58:41;7.20;;;5.85;;
10987;SDS011;5547;42.672;23.230;2023-05-07T08:01:41;6.37;;;5.77;;
10987;SDS011;5547;42.672;23.230;2023-05-07T08:04:42;6.10;;;5.50;;
10987;SDS011;5547;42.672;23.230;2023-05-07T08:07:45;8.57;;;6.35;;
10987;SDS011;5547;42.672;23.230;2023-05-07T08:10:46;5.95;;;5.30;;
10987;SDS011;5547;42.672;23.230;2023-05-07T08:13:49;5.75;;;4.70;;
10987;SDS011;5547;42.672;23.230;2023-05-07T08:16:50;6.90;;;6.10;;
10987;SDS011;5547;42.672;23.230;2023-05-07T08:19:50;8.00;;;5.50;;
10987;SDS011;5547;42.672;23.230;2023-05-07T08:22:51;6.43;;;5.40;;
10987;SDS011;5547;42.672;23.230;2023-05-07T08:25:51;6.63;;;5.80;;
10987;SDS011;5547;42.672;23.230;2023-05-07T08:28:53;9.07;;;6.90;;
10987;SDS011;5547;42.672;23.230;2023-05-07T08:31:53;10.60;;;7.47;;
10987;SDS011;5547;42.672;23.230;2023-05-07T08:34:54;8.50;;;7.60;;
10987;SDS011;5547;42.672;23.230;2023-05-07T08:37:54;8.50;;;6.50;;
10987;SDS011;5547;42.672;23.230;2023-05-07T08:40:55;7.77;;;6.40;;
10987;SDS011;5547;42.672;23.230;2023-05-07T08:43:56;7.60;;;6.87;;
10987;SDS011;5547;42.672;23.230;2023-05-07T08:46:58;6.90;;;6.20;;
10987;SDS011;5547;42.672;23.230;2023-05-07T08:50:01;10.02;;;6.40;;
10987;SDS011;5547;42.672;23.230;2023-05-07T08:53:02;6.77;;;5.93;;
10987;SDS011;5547;42.672;23.230;2023-05-07T08:56:03;7.43;;;6.63;;
10987;SDS011;5547;42.672;23.230;2023-05-07T08:59:05;7.18;;;6.30;;
10987;SDS011;5547;42.672;23.230;2023-05-07T09:02:05;7.30;;;5.90;;
10987;SDS011;5547;42.672;23.230;2023-05-07T09:05:09;7.60;;;6.72;;
10987;SDS011;5547;42.672;23.230;2023-05-07T09:08:09;8.18;;;6.25;;
10987;SDS011;5547;42.672;23.230;2023-05-07T09:11:10;8.10;;;6.80;;
10987;SDS011;5547;42.672;23.230;2023-05-07T09:14:12;8.98;;;6.80;;
10987;SDS011;5547;42.672;23.230;2023-05-07T09:17:13;7.77;;;6.60;;
10987;SDS011;5547;42.672;23.230;2023-05-07T09:20:15;7.25;;;6.35;;
10987;SDS011;5547;42.672;23.230;2023-05-07T09:23:16;7.32;;;5.88;;
10987;SDS011;5547;42.672;23.230;2023-05-07T09:26:17;6.80;;;5.77;;
10987;SDS011;5547;42.672;23.230;2023-05-07T09:29:17;9.63;;;5.40;;
10987;SDS011;5547;42.672;23.230;2023-05-07T09:32:18;7.27;;;5.07;;
10987;SDS011;5547;42.672;23.230;2023-05-07T09:35:18;6.67;;;4.70;;
10987;SDS011;5547;42.672;23.230;2023-05-07T09:38:21;6.40;;;4.95;;
10987;SDS011;5547;42.672;23.230;2023-05-07T09:41:22;4.43;;;3.30;;
10987;SDS011;5547;42.672;23.230;2023-05-07T09:44:22;5.57;;;4.23;;
10987;SDS011;5547;42.672;23.230;2023-05-07T09:47:23;4.70;;;4.00;;
10987;SDS011;5547;42.672;23.230;2023-05-07T09:50:26;4.50;;;3.80;;
10987;SDS011;5547;42.672;23.230;2023-05-07T09:53:31;6.32;;;4.70;;
10987;SDS011;5547;42.672;23.230;2023-05-07T09:56:33;5.65;;;4.53;;
10987;SDS011;5547;42.672;23.230;2023-05-07T09:59:37;5.40;;;4.65;;
10987;SDS011;5547;42.672;23.230;2023-05-07T10:02:39;5.85;;;4.15;;
10987;SDS011;5547;42.672;23.230;2023-05-07T10:05:46;4.90;;;3.80;;
10987;SDS011;5547;42.672;23.230;2023-05-07T10:08:47;3.70;;;3.40;;
10987;SDS011;5547;42.672;23.230;2023-05-07T10:11:51;4.18;;;3.33;;
10987;SDS011;5547;42.672;23.230;2023-05-07T10:14:52;5.10;;;3.63;;
10987;SDS011;5547;42.672;23.230;2023-05-07T10:17:54;4.37;;;3.60;;
10987;SDS011;5547;42.672;23.230;2023-05-07T10:20:56;4.50;;;3.53;;
10987;SDS011;5547;42.672;23.230;2023-05-07T10:24:13;5.28;;;3.63;;
10987;SDS011;5547;42.672;23.230;2023-05-07T10:27:19;3.87;;;3.43;;
10987;SDS011;5547;42.672;23.230;2023-05-07T10:30:32;3.85;;;2.97;;
10987;SDS011;5547;42.672;23.230;2023-05-07T10:33:44;3.95;;;3.30;;
10987;SDS011;5547;42.672;23.230;2023-05-07T10:36:48;4.00;;;3.50;;
10987;SDS011;5547;42.672;23.230;2023-05-07T10:39:51;3.03;;;2.70;;
10987;SDS011;5547;42.672;23.230;2023-05-07T10:42:53;5.37;;;3.40;;
10987;SDS011;5547;42.672;23.230;2023-05-07T10:46:18;5.55;;;3.80;;
10987;SDS011;5547;42.672;23.230;2023-05-07T10:49:19;4.88;;;3.67;;
10987;SDS011;5547;42.672;23.230;2023-05-07T10:52:21;6.18;;;3.55;;
10987;SDS011;5547;42.672;23.230;2023-05-07T10:55:23;4.05;;;3.55;;
10987;SDS011;5547;42.672;23.230;2023-05-07T10:58:26;4.72;;;3.50;;
10987;SDS011;5547;42.672;23.230;2023-05-07T11:08:23;4.57;;;3.42;;
10987;SDS011;5547;42.672;23.230;2023-05-07T11:14:59;3.90;;;3.47;;
10987;SDS011;5547;42.672;23.230;2023-05-07T11:18:00;4.63;;;3.67;;
10987;SDS011;5547;42.672;23.230;2023-05-07T11:21:00;4.80;;;3.67;;
10987;SDS011;5547;42.672;23.230;2023-05-07T11:24:02;4.72;;;3.80;;
10987;SDS011;5547;42.672;23.230;2023-05-07T11:27:04;4.72;;;3.97;;
10987;SDS011;5547;42.672;23.230;2023-05-07T11:30:05;4.10;;;3.70;;
10987;SDS011;5547;42.672;23.230;2023-05-07T11:33:05;4.20;;;3.80;;
10987;SDS011;5547;42.672;23.230;2023-05-07T11:36:07;3.23;;;2.93;;
10987;SDS011;5547;42.672;23.230;2023-05-07T11:45:29;4.13;;;3.65;;
10987;SDS011;5547;42.672;23.230;2023-05-07T11:48:30;3.70;;;3.40;;
10987;SDS011;5547;42.672;23.230;2023-05-07T11:51:30;5.10;;;3.40;;
10987;SDS011;5547;42.672;23.230;2023-05-07T11:54:37;4.20;;;3.40;;
10987;SDS011;5547;42.672;23.230;2023-05-07T11:57:37;4.80;;;3.60;;
10987;SDS011;5547;42.672;23.230;2023-05-07T12:00:38;4.30;;;3.90;;
10987;SDS011;5547;42.672;23.230;2023-05-07T12:03:42;5.53;;;3.87;;
10987;SDS011;5547;42.672;23.230;2023-05-07T12:06:44;5.28;;;3.92;;
10987;SDS011;5547;42.672;23.230;2023-05-07T12:09:45;4.30;;;3.83;;
10987;SDS011;5547;42.672;23.230;2023-05-07T12:12:46;4.25;;;3.33;;
10987;SDS011;5547;42.672;23.230;2023-05-07T12:15:46;4.65;;;3.40;;
10987;SDS011;5547;42.672;23.230;2023-05-07T12:18:51;3.72;;;3.30;;
10987;SDS011;5547;42.672;23.230;2023-05-07T12:21:52;3.92;;;3.10;;
10987;SDS011;5547;42.672;23.230;2023-05-07T12:24:59;4.57;;;3.57;;
10987;SDS011;5547;42.672;23.230;2023-05-07T12:28:00;4.25;;;3.50;;
10987;SDS011;5547;42.672;23.230;2023-05-07T12:31:01;4.50;;;3.23;;
10987;SDS011;5547;42.672;23.230;2023-05-07T12:34:02;3.97;;;3.40;;
10987;SDS011;5547;42.672;23.230;2023-05-07T12:37:02;3.55;;;3.10;;
10987;SDS011;5547;42.672;23.230;2023-05-07T12:40:09;3.78;;;3.17;;
10987;SDS011;5547;42.672;23.230;2023-05-07T12:43:20;4.05;;;3.45;;
10987;SDS011;5547;42.672;23.230;2023-05-07T12:46:25;4.30;;;3.30;;
10987;SDS011;5547;42.672;23.230;2023-05-07T12:49:25;3.70;;;3.30;;
10987;SDS011;5547;42.672;23.230;2023-05-07T12:52:25;4.70;;;3.17;;
10987;SDS011;5547;42.672;23.230;2023-05-07T12:55:26;4.40;;;3.20;;
10987;SDS011;5547;42.672;23.230;2023-05-07T12:58:29;5.22;;;3.40;;
10987;SDS011;5547;42.672;23.230;2023-05-07T13:01:34;4.50;;;3.30;;
10987;SDS011;5547;42.672;23.230;2023-05-07T13:04:35;3.40;;;2.90;;
10987;SDS011;5547;42.672;23.230;2023-05-07T13:07:35;4.00;;;3.28;;
10987;SDS011;5547;42.672;23.230;2023-05-07T13:10:36;3.70;;;3.08;;
10987;SDS011;5547;42.672;23.230;2023-05-07T13:13:38;3.87;;;3.13;;
10987;SDS011;5547;42.672;23.230;2023-05-07T13:16:39;3.20;;;2.85;;
10987;SDS011;5547;42.672;23.230;2023-05-07T13:19:40;3.00;;;2.80;;
10987;SDS011;5547;42.672;23.230;2023-05-07T13:22:40;3.83;;;3.00;;
10987;SDS011;5547;42.672;23.230;2023-05-07T13:25:41;3.60;;;3.30;;
10987;SDS011;5547;42.672;23.230;2023-05-07T13:28:41;4.27;;;3.00;;
10987;SDS011;5547;42.672;23.230;2023-05-07T13:31:41;3.20;;;2.83;;
10987;SDS011;5547;42.672;23.230;2023-05-07T13:34:43;6.00;;;4.57;;
10987;SDS011;5547;42.672;23.230;2023-05-07T13:37:44;5.38;;;4.38;;
10987;SDS011;5547;42.672;23.230;2023-05-07T13:40:44;4.90;;;3.63;;
10987;SDS011;5547;42.672;23.230;2023-05-07T13:43:45;3.60;;;3.03;;
10987;SDS011;5547;42.672;23.230;2023-05-07T13:46:45;3.83;;;3.03;;
10987;SDS011;5547;42.672;23.230;2023-05-07T13:49:46;3.85;;;2.92;;
10987;SDS011;5547;42.672;23.230;2023-05-07T13:52:49;3.70;;;3.07;;
10987;SDS011;5547;42.672;23.230;2023-05-07T13:55:52;4.10;;;3.30;;
10987;SDS011;5547;42.672;23.230;2023-05-07T13:58:52;4.50;;;3.27;;
10987;SDS011;5547;42.672;23.230;2023-05-07T14:01:53;4.10;;;3.00;;
10987;SDS011;5547;42.672;23.230;2023-05-07T14:04:54;6.03;;;3.05;;
10987;SDS011;5547;42.672;23.230;2023-05-07T14:07:56;4.77;;;3.37;;
10987;SDS011;5547;42.672;23.230;2023-05-07T14:10:57;6.50;;;3.53;;
10987;SDS011;5547;42.672;23.230;2023-05-07T14:13:58;4.72;;;3.53;;
10987;SDS011;5547;42.672;23.230;2023-05-07T14:16:58;3.78;;;3.15;;
10987;SDS011;5547;42.672;23.230;2023-05-07T14:19:59;4.40;;;3.67;;
10987;SDS011;5547;42.672;23.230;2023-05-07T14:22:59;4.13;;;3.22;;
10987;SDS011;5547;42.672;23.230;2023-05-07T14:25:59;3.45;;;3.10;;
10987;SDS011;5547;42.672;23.230;2023-05-07T14:29:00;4.70;;;3.10;;
10987;SDS011;5547;42.672;23.230;2023-05-07T14:32:00;3.78;;;3.30;;
10987;SDS011;5547;42.672;23.230;2023-05-07T14:35:02;4.00;;;3.20;;
10987;SDS011;5547;42.672;23.230;2023-05-07T14:38:02;3.78;;;2.70;;
10987;SDS011;5547;42.672;23.230;2023-05-07T14:41:02;3.60;;;2.95;;
10987;SDS011;5547;42.672;23.230;2023-05-07T14:44:03;3.72;;;2.72;;
10987;SDS011;5547;42.672;23.230;2023-05-07T14:47:04;3.95;;;3.00;;
10987;SDS011;5547;42.672;23.230;2023-05-07T14:50:04;3.60;;;2.80;;
10987;SDS011;5547;42.672;23.230;2023-05-07T14:53:05;3.80;;;2.90;;
10987;SDS011;5547;42.672;23.230;2023-05-07T14:56:05;4.00;;;3.10;;
10987;SDS011;5547;42.672;23.230;2023-05-07T14:59:06;3.30;;;3.00;;
10987;SDS011;5547;42.672;23.230;2023-05-07T15:02:07;3.25;;;2.80;;
10987;SDS011;5547;42.672;23.230;2023-05-07T15:05:08;4.03;;;3.17;;
10987;SDS011;5547;42.672;23.230;2023-05-07T15:08:09;3.97;;;2.77;;
10987;SDS011;5547;42.672;23.230;2023-05-07T15:11:09;4.40;;;3.00;;
10987;SDS011;5547;42.672;23.230;2023-05-07T15:14:09;5.30;;;3.20;;
10987;SDS011;5547;42.672;23.230;2023-05-07T15:17:10;3.22;;;2.90;;
10987;SDS011;5547;42.672;23.230;2023-05-07T15:20:10;4.35;;;2.65;;
10987;SDS011;5547;42.672;23.230;2023-05-07T15:23:11;4.45;;;2.95;;
10987;SDS011;5547;42.672;23.230;2023-05-07T15:26:15;3.33;;;3.00;;
10987;SDS011;5547;42.672;23.230;2023-05-07T15:29:15;3.03;;;2.73;;
10987;SDS011;5547;42.672;23.230;2023-05-07T15:32:15;3.63;;;2.97;;
10987;SDS011;5547;42.672;23.230;2023-05-07T15:35:16;3.10;;;2.73;;
10987;SDS011;5547;42.672;23.230;2023-05-07T15:38:21;3.20;;;2.90;;
10987;SDS011;5547;42.672;23.230;2023-05-07T15:41:22;3.43;;;2.97;;
10987;SDS011;5547;42.672;23.230;2023-05-07T15:44:22;4.17;;;3.10;;
10987;SDS011;5547;42.672;23.230;2023-05-07T15:47:27;3.30;;;3.00;;
10987;SDS011;5547;42.672;23.230;2023-05-07T15:50:27;4.55;;;3.20;;
10987;SDS011;5547;42.672;23.230;2023-05-07T15:53:28;3.30;;;2.95;;
10987;SDS011;5547;42.672;23.230;2023-05-07T15:56:28;4.17;;;3.20;;
10987;SDS011;5547;42.672;23.230;2023-05-07T15:59:32;5.43;;;3.25;;
10987;SDS011;5547;42.672;23.230;2023-05-07T16:02:33;4.63;;;3.60;;
10987;SDS011;5547;42.672;23.230;2023-05-07T16:05:34;3.95;;;2.92;;
10987;SDS011;5547;42.672;23.230;2023-05-07T16:08:34;5.13;;;3.05;;
10987;SDS011;5547;42.672;23.230;2023-05-07T16:11:35;3.53;;;2.80;;
10987;SDS011;5547;42.672;23.230;2023-05-07T16:14:35;3.70;;;2.90;;
10987;SDS011;5547;42.672;23.230;2023-05-07T16:17:36;3.67;;;2.70;;
10987;SDS011;5547;42.672;23.230;2023-05-07T16:20:36;3.20;;;2.90;;
10987;SDS011;5547;42.672;23.230;2023-05-07T16:23:37;3.60;;;3.30;;
10987;SDS011;5547;42.672;23.230;2023-05-07T16:26:37;3.90;;;2.80;;
10987;SDS011;5547;42.672;23.230;2023-05-07T16:29:37;3.73;;;3.10;;
10987;SDS011;5547;42.672;23.230;2023-05-07T16:32:38;3.95;;;3.30;;
10987;SDS011;5547;42.672;23.230;2023-05-07T16:35:39;5.28;;;3.78;;
10987;SDS011;5547;42.672;23.230;2023-05-07T16:38:40;5.37;;;4.30;;
10987;SDS011;5547;42.672;23.230;2023-05-07T16:41:40;6.80;;;4.27;;
10987;SDS011;5547;42.672;23.230;2023-05-07T16:44:40;5.63;;;4.77;;
10987;SDS011;5547;42.672;23.230;2023-05-07T16:47:41;10.80;;;6.50;;
10987;SDS011;5547;42.672;23.230;2023-05-07T16:50:41;18.23;;;10.33;;
10987;SDS011;5547;42.672;23.230;2023-05-07T16:53:43;16.15;;;10.85;;
10987;SDS011;5547;42.672;23.230;2023-05-07T16:56:43;13.43;;;8.20;;
10987;SDS011;5547;42.672;23.230;2023-05-07T16:59:44;6.80;;;5.63;;
10987;SDS011;5547;42.672;23.230;2023-05-07T17:02:44;8.83;;;5.90;;
10987;SDS011;5547;42.672;23.230;2023-05-07T17:05:45;9.90;;;6.45;;
10987;SDS011;5547;42.672;23.230;2023-05-07T17:08:46;7.10;;;6.00;;
10987;SDS011;5547;42.672;23.230;2023-05-07T17:11:46;8.40;;;5.93;;
10987;SDS011;5547;42.672;23.230;2023-05-07T17:14:46;7.37;;;5.20;;
10987;SDS011;5547;42.672;23.230;2023-05-07T17:17:47;6.53;;;4.27;;
10987;SDS011;5547;42.672;23.230;2023-05-07T17:20:47;7.53;;;4.37;;
10987;SDS011;5547;42.672;23.230;2023-05-07T17:23:47;6.03;;;3.57;;
10987;SDS011;5547;42.672;23.230;2023-05-07T17:26:48;4.77;;;3.53;;
10987;SDS011;5547;42.672;23.230;2023-05-07T17:29:48;5.03;;;3.87;;
10987;SDS011;5547;42.672;23.230;2023-05-07T17:32:49;4.57;;;3.47;;
10987;SDS011;5547;42.672;23.230;2023-05-07T17:35:50;4.38;;;3.53;;
10987;SDS011;5547;42.672;23.230;2023-05-07T17:38:51;5.40;;;4.07;;
10987;SDS011;5547;42.672;23.230;2023-05-07T17:41:52;4.83;;;4.10;;
10987;SDS011;5547;42.672;23.230;2023-05-07T17:44:52;4.80;;;3.87;;
10987;SDS011;5547;42.672;23.230;2023-05-07T17:47:54;5.55;;;3.70;;
10987;SDS011;5547;42.672;23.230;2023-05-07T17:50:59;7.63;;;5.80;;
10987;SDS011;5547;42.672;23.230;2023-05-07T17:54:00;9.10;;;5.95;;
10987;SDS011;5547;42.672;23.230;2023-05-07T17:57:01;14.77;;;10.67;;
10987;SDS011;5547;42.672;23.230;2023-05-07T18:00:02;21.10;;;13.67;;
10987;SDS011;5547;42.672;23.230;2023-05-07T18:03:06;33.75;;;19.20;;
10987;SDS011;5547;42.672;23.230;2023-05-07T18:06:07;10.57;;;7.17;;
10987;SDS011;5547;42.672;23.230;2023-05-07T18:09:07;6.07;;;4.83;;
10987;SDS011;5547;42.672;23.230;2023-05-07T18:12:07;6.90;;;5.10;;
10987;SDS011;5547;42.672;23.230;2023-05-07T18:15:08;6.83;;;4.73;;
10987;SDS011;5547;42.672;23.230;2023-05-07T18:18:09;8.80;;;6.65;;
10987;SDS011;5547;42.672;23.230;2023-05-07T18:21:10;9.35;;;5.85;;